CheckWX is a tool to help pilots better visualize weather data.  It is not intended as a substitute for an official pre-flight weather briefing.

21:22:43 UTC

KMIV TAF
Millville Municipal Airport
Millville, New Jersey, USA
KMIV 162048Z 1621/1718 24010KT P6SM BKN090 TEMPO 1623/1701 3SM -TSRA BKN030CB FM170400 21006KT P6SM OVC070 FM170900 VRB03KT 4SM BR BKN200 FM171300 VRB05KT P6SM BKN100

Jun-16@
21:00 UTC

Jun-16 @ 21:00 UTC

Jun-17@
04:00 UTC

Jun-17 @ 04:00 UTC

KMIV 162048Z 1621/1718 24010KT P6SM BKN090
Wind
  • 240° at 10 KTS
Cloud Levels
  • Broken at 9,000' AGL

Jun-16@
23:00 UTC

Jun-16 @ 23:00 UTC

Jun-17@
01:00 UTC

Jun-17 @ 01:00 UTC

TEMPO 1623/1701 3SM -TSRA BKN030CB

Temporary

Temporary Changes expected for less than half the time period

Conditions
Light Thunderstorm, Light Rain
Cloud Levels
  • Broken at 3,000' AGL

Jun-17@
04:00 UTC

Jun-17 @ 04:00 UTC

Jun-17@
09:00 UTC

Jun-17 @ 09:00 UTC

FM170400 21006KT P6SM OVC070

From

From Standard forecast or significant change

Wind
  • 210° at 6 KTS
Cloud Levels
  • Overcast at 7,000' AGL

Jun-17@
09:00 UTC

Jun-17 @ 09:00 UTC

Jun-17@
13:00 UTC

Jun-17 @ 13:00 UTC

FM170900 VRB03KT 4SM BR BKN200

From

From Standard forecast or significant change

Wind
  • Variable at 3 KTS
Conditions
Mist
Cloud Levels
  • Broken at 20,000' AGL

Jun-17@
13:00 UTC

Jun-17 @ 13:00 UTC

Jun-17@
18:00 UTC

Jun-17 @ 18:00 UTC

FM171300 VRB05KT P6SM BKN100

From

From Standard forecast or significant change

Wind
  • Variable at 5 KTS
Cloud Levels
  • Broken at 10,000' AGL